sensor_id;sensor_type;location;lat;lon;timestamp;P1;durP1;ratioP1;P2;durP2;ratioP2
12762;SDS011;6445;52.490;13.378;2023-02-10T00:00:18;22.95;;;13.15;;
12762;SDS011;6445;52.490;13.378;2023-02-10T00:02:43;21.75;;;12.57;;
12762;SDS011;6445;52.490;13.378;2023-02-10T00:05:09;24.73;;;13.05;;
12762;SDS011;6445;52.490;13.378;2023-02-10T00:07:34;22.85;;;13.30;;
12762;SDS011;6445;52.490;13.378;2023-02-10T00:09:59;22.73;;;12.05;;
12762;SDS011;6445;52.490;13.378;2023-02-10T00:12:24;22.00;;;12.27;;
12762;SDS011;6445;52.490;13.378;2023-02-10T00:14:50;22.65;;;13.07;;
12762;SDS011;6445;52.490;13.378;2023-02-10T00:17:15;20.33;;;11.60;;
12762;SDS011;6445;52.490;13.378;2023-02-10T00:19:42;21.20;;;12.30;;
12762;SDS011;6445;52.490;13.378;2023-02-10T00:22:07;24.65;;;13.27;;
12762;SDS011;6445;52.490;13.378;2023-02-10T00:24:32;21.15;;;12.52;;
12762;SDS011;6445;52.490;13.378;2023-02-10T00:26:58;23.35;;;13.48;;
12762;SDS011;6445;52.490;13.378;2023-02-10T00:29:23;23.08;;;13.88;;
12762;SDS011;6445;52.490;13.378;2023-02-10T00:31:49;23.88;;;12.50;;
12762;SDS011;6445;52.490;13.378;2023-02-10T00:34:16;28.40;;;13.20;;
12762;SDS011;6445;52.490;13.378;2023-02-10T00:36:42;23.58;;;12.55;;
12762;SDS011;6445;52.490;13.378;2023-02-10T00:39:11;20.30;;;12.70;;
12762;SDS011;6445;52.490;13.378;2023-02-10T00:41:38;21.52;;;12.50;;
12762;SDS011;6445;52.490;13.378;2023-02-10T00:44:03;22.70;;;13.40;;
12762;SDS011;6445;52.490;13.378;2023-02-10T00:46:28;24.65;;;13.35;;
12762;SDS011;6445;52.490;13.378;2023-02-10T00:48:54;25.70;;;12.48;;
12762;SDS011;6445;52.490;13.378;2023-02-10T00:51:19;25.45;;;13.75;;
12762;SDS011;6445;52.490;13.378;2023-02-10T00:53:44;23.60;;;13.23;;
12762;SDS011;6445;52.490;13.378;2023-02-10T00:56:10;23.70;;;13.63;;
12762;SDS011;6445;52.490;13.378;2023-02-10T00:58:36;25.27;;;13.10;;
12762;SDS011;6445;52.490;13.378;2023-02-10T01:01:03;25.33;;;13.18;;
12762;SDS011;6445;52.490;13.378;2023-02-10T01:03:28;24.75;;;13.60;;
12762;SDS011;6445;52.490;13.378;2023-02-10T01:05:54;23.80;;;13.43;;
12762;SDS011;6445;52.490;13.378;2023-02-10T01:08:19;25.80;;;13.60;;
12762;SDS011;6445;52.490;13.378;2023-02-10T01:10:44;24.73;;;14.05;;
12762;SDS011;6445;52.490;13.378;2023-02-10T01:13:10;25.08;;;13.43;;
12762;SDS011;6445;52.490;13.378;2023-02-10T01:15:40;22.75;;;14.00;;
12762;SDS011;6445;52.490;13.378;2023-02-10T01:18:07;23.05;;;13.48;;
12762;SDS011;6445;52.490;13.378;2023-02-10T01:20:32;23.55;;;13.18;;
12762;SDS011;6445;52.490;13.378;2023-02-10T01:22:57;21.95;;;13.48;;
12762;SDS011;6445;52.490;13.378;2023-02-10T01:25:23;25.80;;;14.10;;
12762;SDS011;6445;52.490;13.378;2023-02-10T01:27:48;24.17;;;13.32;;
12762;SDS011;6445;52.490;13.378;2023-02-10T01:30:13;25.65;;;14.05;;
12762;SDS011;6445;52.490;13.378;2023-02-10T01:32:38;27.63;;;14.48;;
12762;SDS011;6445;52.490;13.378;2023-02-10T01:35:04;26.20;;;14.18;;
12762;SDS011;6445;52.490;13.378;2023-02-10T01:37:29;23.55;;;13.32;;
12762;SDS011;6445;52.490;13.378;2023-02-10T01:39:54;27.48;;;14.63;;
12762;SDS011;6445;52.490;13.378;2023-02-10T01:42:20;23.25;;;13.38;;
12762;SDS011;6445;52.490;13.378;2023-02-10T01:47:10;26.70;;;14.43;;
12762;SDS011;6445;52.490;13.378;2023-02-10T01:49:40;27.98;;;14.38;;
12762;SDS011;6445;52.490;13.378;2023-02-10T01:52:11;26.10;;;14.25;;
12762;SDS011;6445;52.490;13.378;2023-02-10T01:54:47;25.35;;;14.60;;
12762;SDS011;6445;52.490;13.378;2023-02-10T01:57:19;24.85;;;13.90;;
12762;SDS011;6445;52.490;13.378;2023-02-10T01:59:45;27.60;;;14.60;;
12762;SDS011;6445;52.490;13.378;2023-02-10T02:02:11;26.67;;;14.25;;
12762;SDS011;6445;52.490;13.378;2023-02-10T02:04:48;25.70;;;14.55;;
12762;SDS011;6445;52.490;13.378;2023-02-10T02:07:17;27.67;;;14.60;;
12762;SDS011;6445;52.490;13.378;2023-02-10T02:09:45;27.17;;;14.98;;
12762;SDS011;6445;52.490;13.378;2023-02-10T02:12:21;24.77;;;14.73;;
12762;SDS011;6445;52.490;13.378;2023-02-10T02:14:53;27.85;;;14.57;;
12762;SDS011;6445;52.490;13.378;2023-02-10T02:20:18;26.65;;;14.20;;
12762;SDS011;6445;52.490;13.378;2023-02-10T02:23:07;27.38;;;15.13;;
12762;SDS011;6445;52.490;13.378;2023-02-10T02:29:27;27.83;;;14.68;;
12762;SDS011;6445;52.490;13.378;2023-02-10T02:32:14;27.90;;;15.63;;
12762;SDS011;6445;52.490;13.378;2023-02-10T02:34:56;28.38;;;15.07;;
12762;SDS011;6445;52.490;13.378;2023-02-10T02:37:33;27.40;;;14.95;;
12762;SDS011;6445;52.490;13.378;2023-02-10T02:40:03;27.23;;;15.75;;
12762;SDS011;6445;52.490;13.378;2023-02-10T02:42:30;27.85;;;15.70;;
12762;SDS011;6445;52.490;13.378;2023-02-10T02:45:01;31.10;;;16.23;;
12762;SDS011;6445;52.490;13.378;2023-02-10T02:47:41;28.50;;;14.80;;
12762;SDS011;6445;52.490;13.378;2023-02-10T02:59:20;29.50;;;15.63;;
12762;SDS011;6445;52.490;13.378;2023-02-10T03:01:53;29.90;;;15.73;;
12762;SDS011;6445;52.490;13.378;2023-02-10T03:04:22;26.13;;;15.77;;
12762;SDS011;6445;52.490;13.378;2023-02-10T03:06:51;29.55;;;16.17;;
12762;SDS011;6445;52.490;13.378;2023-02-10T03:09:16;31.08;;;16.92;;
12762;SDS011;6445;52.490;13.378;2023-02-10T03:11:42;27.90;;;16.17;;
12762;SDS011;6445;52.490;13.378;2023-02-10T03:14:07;30.83;;;16.52;;
12762;SDS011;6445;52.490;13.378;2023-02-10T03:16:32;33.63;;;17.30;;
12762;SDS011;6445;52.490;13.378;2023-02-10T03:18:58;31.77;;;16.33;;
12762;SDS011;6445;52.490;13.378;2023-02-10T03:21:23;32.60;;;17.52;;
12762;SDS011;6445;52.490;13.378;2023-02-10T03:23:48;31.42;;;17.05;;
12762;SDS011;6445;52.490;13.378;2023-02-10T03:26:13;29.95;;;17.02;;
12762;SDS011;6445;52.490;13.378;2023-02-10T03:28:39;29.85;;;17.45;;
12762;SDS011;6445;52.490;13.378;2023-02-10T03:31:04;30.75;;;17.60;;
12762;SDS011;6445;52.490;13.378;2023-02-10T03:33:32;30.73;;;17.88;;
12762;SDS011;6445;52.490;13.378;2023-02-10T03:35:57;32.10;;;17.98;;
12762;SDS011;6445;52.490;13.378;2023-02-10T03:38:23;36.55;;;18.92;;
12762;SDS011;6445;52.490;13.378;2023-02-10T03:40:50;32.95;;;19.25;;
12762;SDS011;6445;52.490;13.378;2023-02-10T03:43:15;37.65;;;19.10;;
12762;SDS011;6445;52.490;13.378;2023-02-10T03:45:40;36.83;;;19.70;;
12762;SDS011;6445;52.490;13.378;2023-02-10T03:48:06;38.80;;;20.35;;
12762;SDS011;6445;52.490;13.378;2023-02-10T03:50:31;37.55;;;20.00;;
12762;SDS011;6445;52.490;13.378;2023-02-10T03:52:56;38.85;;;20.95;;
12762;SDS011;6445;52.490;13.378;2023-02-10T03:55:21;42.92;;;21.67;;
12762;SDS011;6445;52.490;13.378;2023-02-10T03:57:47;41.90;;;21.45;;
12762;SDS011;6445;52.490;13.378;2023-02-10T04:00:12;46.92;;;21.65;;
12762;SDS011;6445;52.490;13.378;2023-02-10T04:02:38;42.35;;;21.95;;
12762;SDS011;6445;52.490;13.378;2023-02-10T04:05:04;44.10;;;21.95;;
12762;SDS011;6445;52.490;13.378;2023-02-10T04:07:29;36.42;;;20.88;;
12762;SDS011;6445;52.490;13.378;2023-02-10T04:09:54;43.88;;;22.33;;
12762;SDS011;6445;52.490;13.378;2023-02-10T04:12:20;43.05;;;22.20;;
12762;SDS011;6445;52.490;13.378;2023-02-10T04:14:45;43.80;;;22.08;;
12762;SDS011;6445;52.490;13.378;2023-02-10T04:17:10;41.95;;;21.83;;
12762;SDS011;6445;52.490;13.378;2023-02-10T04:19:35;43.75;;;22.63;;
12762;SDS011;6445;52.490;13.378;2023-02-10T04:22:01;49.83;;;23.45;;
12762;SDS011;6445;52.490;13.378;2023-02-10T04:24:26;41.38;;;22.17;;
12762;SDS011;6445;52.490;13.378;2023-02-10T04:26:51;46.75;;;23.25;;
12762;SDS011;6445;52.490;13.378;2023-02-10T04:29:16;47.95;;;22.80;;
12762;SDS011;6445;52.490;13.378;2023-02-10T04:31:42;46.42;;;23.67;;
12762;SDS011;6445;52.490;13.378;2023-02-10T04:34:07;48.13;;;23.73;;
12762;SDS011;6445;52.490;13.378;2023-02-10T04:36:32;45.80;;;23.60;;
12762;SDS011;6445;52.490;13.378;2023-02-10T04:38:57;45.08;;;23.98;;
12762;SDS011;6445;52.490;13.378;2023-02-10T04:41:23;48.15;;;24.27;;
12762;SDS011;6445;52.490;13.378;2023-02-10T04:43:48;47.70;;;24.70;;
12762;SDS011;6445;52.490;13.378;2023-02-10T04:46:13;48.50;;;24.55;;
12762;SDS011;6445;52.490;13.378;2023-02-10T04:48:39;47.05;;;24.10;;
12762;SDS011;6445;52.490;13.378;2023-02-10T04:51:08;49.65;;;24.35;;
12762;SDS011;6445;52.490;13.378;2023-02-10T04:53:34;43.00;;;24.23;;
12762;SDS011;6445;52.490;13.378;2023-02-10T04:56:00;49.70;;;25.38;;
12762;SDS011;6445;52.490;13.378;2023-02-10T04:58:25;42.78;;;24.15;;
12762;SDS011;6445;52.490;13.378;2023-02-10T05:00:50;44.92;;;24.35;;
12762;SDS011;6445;52.490;13.378;2023-02-10T05:03:15;51.13;;;24.63;;
12762;SDS011;6445;52.490;13.378;2023-02-10T05:05:41;45.45;;;24.73;;
12762;SDS011;6445;52.490;13.378;2023-02-10T05:08:06;50.72;;;24.95;;
12762;SDS011;6445;52.490;13.378;2023-02-10T05:10:31;42.78;;;24.63;;
12762;SDS011;6445;52.490;13.378;2023-02-10T05:12:57;47.25;;;23.75;;
12762;SDS011;6445;52.490;13.378;2023-02-10T05:15:22;48.70;;;24.98;;
12762;SDS011;6445;52.490;13.378;2023-02-10T05:17:47;50.95;;;24.95;;
12762;SDS011;6445;52.490;13.378;2023-02-10T05:20:12;46.67;;;25.63;;
12762;SDS011;6445;52.490;13.378;2023-02-10T05:22:38;47.20;;;24.65;;
12762;SDS011;6445;52.490;13.378;2023-02-10T05:25:04;45.30;;;24.38;;
12762;SDS011;6445;52.490;13.378;2023-02-10T05:27:30;49.05;;;25.38;;
12762;SDS011;6445;52.490;13.378;2023-02-10T05:29:56;50.63;;;25.02;;
12762;SDS011;6445;52.490;13.378;2023-02-10T05:32:21;52.00;;;25.80;;
12762;SDS011;6445;52.490;13.378;2023-02-10T05:34:46;52.45;;;25.10;;
12762;SDS011;6445;52.490;13.378;2023-02-10T05:37:11;44.95;;;25.48;;
12762;SDS011;6445;52.490;13.378;2023-02-10T05:39:37;47.90;;;24.38;;
12762;SDS011;6445;52.490;13.378;2023-02-10T05:42:02;48.65;;;25.10;;
12762;SDS011;6445;52.490;13.378;2023-02-10T05:44:28;47.92;;;25.42;;
12762;SDS011;6445;52.490;13.378;2023-02-10T05:46:54;47.25;;;24.90;;
12762;SDS011;6445;52.490;13.378;2023-02-10T05:49:20;50.60;;;26.70;;
12762;SDS011;6445;52.490;13.378;2023-02-10T05:51:46;50.92;;;27.15;;
12762;SDS011;6445;52.490;13.378;2023-02-10T05:54:11;50.53;;;27.38;;
12762;SDS011;6445;52.490;13.378;2023-02-10T05:56:37;49.92;;;25.60;;
12762;SDS011;6445;52.490;13.378;2023-02-10T05:59:03;55.47;;;26.67;;
12762;SDS011;6445;52.490;13.378;2023-02-10T06:01:29;53.85;;;26.48;;
12762;SDS011;6445;52.490;13.378;2023-02-10T06:03:55;52.65;;;27.42;;
12762;SDS011;6445;52.490;13.378;2023-02-10T06:06:20;46.90;;;26.27;;
12762;SDS011;6445;52.490;13.378;2023-02-10T06:08:46;51.63;;;27.55;;
12762;SDS011;6445;52.490;13.378;2023-02-10T06:11:11;50.55;;;27.73;;
12762;SDS011;6445;52.490;13.378;2023-02-10T06:13:37;56.53;;;27.65;;
12762;SDS011;6445;52.490;13.378;2023-02-10T06:16:02;54.95;;;27.40;;
12762;SDS011;6445;52.490;13.378;2023-02-10T06:18:28;52.67;;;25.92;;
12762;SDS011;6445;52.490;13.378;2023-02-10T06:20:54;49.58;;;25.88;;
12762;SDS011;6445;52.490;13.378;2023-02-10T06:23:19;56.00;;;26.75;;
12762;SDS011;6445;52.490;13.378;2023-02-10T06:25:45;52.35;;;26.90;;
12762;SDS011;6445;52.490;13.378;2023-02-10T06:28:11;61.75;;;26.90;;
12762;SDS011;6445;52.490;13.378;2023-02-10T06:30:36;56.35;;;26.88;;
12762;SDS011;6445;52.490;13.378;2023-02-10T06:33:02;49.60;;;26.45;;
12762;SDS011;6445;52.490;13.378;2023-02-10T06:35:27;55.72;;;27.45;;
12762;SDS011;6445;52.490;13.378;2023-02-10T06:37:52;50.55;;;27.50;;
12762;SDS011;6445;52.490;13.378;2023-02-10T06:40:18;51.72;;;26.80;;
12762;SDS011;6445;52.490;13.378;2023-02-10T06:42:44;53.40;;;28.00;;
12762;SDS011;6445;52.490;13.378;2023-02-10T06:45:09;50.85;;;26.90;;
12762;SDS011;6445;52.490;13.378;2023-02-10T06:47:34;58.58;;;28.60;;
12762;SDS011;6445;52.490;13.378;2023-02-10T06:50:00;57.22;;;27.52;;
12762;SDS011;6445;52.490;13.378;2023-02-10T06:52:26;54.10;;;27.20;;
12762;SDS011;6445;52.490;13.378;2023-02-10T06:54:51;59.20;;;29.90;;
12762;SDS011;6445;52.490;13.378;2023-02-10T06:57:17;55.15;;;26.55;;
12762;SDS011;6445;52.490;13.378;2023-02-10T06:59:42;54.95;;;27.52;;
12762;SDS011;6445;52.490;13.378;2023-02-10T07:02:11;51.75;;;26.05;;
12762;SDS011;6445;52.490;13.378;2023-02-10T07:04:37;49.17;;;26.98;;
12762;SDS011;6445;52.490;13.378;2023-02-10T07:07:03;58.72;;;28.33;;
12762;SDS011;6445;52.490;13.378;2023-02-10T07:09:29;60.80;;;27.95;;
12762;SDS011;6445;52.490;13.378;2023-02-10T07:11:54;55.30;;;27.92;;
12762;SDS011;6445;52.490;13.378;2023-02-10T07:14:19;49.17;;;26.27;;
12762;SDS011;6445;52.490;13.378;2023-02-10T07:16:45;56.75;;;25.77;;
12762;SDS011;6445;52.490;13.378;2023-02-10T07:19:10;56.70;;;25.35;;
12762;SDS011;6445;52.490;13.378;2023-02-10T07:21:35;56.22;;;27.85;;
12762;SDS011;6445;52.490;13.378;2023-02-10T07:24:02;50.63;;;25.17;;
12762;SDS011;6445;52.490;13.378;2023-02-10T07:26:27;56.65;;;26.35;;
12762;SDS011;6445;52.490;13.378;2023-02-10T07:28:53;49.60;;;25.95;;
12762;SDS011;6445;52.490;13.378;2023-02-10T07:31:18;48.53;;;25.27;;
12762;SDS011;6445;52.490;13.378;2023-02-10T07:33:44;53.50;;;26.92;;
12762;SDS011;6445;52.490;13.378;2023-02-10T07:36:09;50.50;;;26.05;;
12762;SDS011;6445;52.490;13.378;2023-02-10T07:38:35;50.10;;;24.70;;
12762;SDS011;6445;52.490;13.378;2023-02-10T07:41:00;50.92;;;24.92;;
12762;SDS011;6445;52.490;13.378;2023-02-10T07:43:26;52.00;;;25.77;;
12762;SDS011;6445;52.490;13.378;2023-02-10T07:45:51;50.10;;;24.23;;
12762;SDS011;6445;52.490;13.378;2023-02-10T07:48:17;43.90;;;22.80;;
12762;SDS011;6445;52.490;13.378;2023-02-10T07:50:43;44.28;;;23.60;;
12762;SDS011;6445;52.490;13.378;2023-02-10T07:53:08;51.05;;;24.55;;
12762;SDS011;6445;52.490;13.378;2023-02-10T07:55:35;40.92;;;22.67;;
12762;SDS011;6445;52.490;13.378;2023-02-10T07:58:01;46.33;;;23.27;;
12762;SDS011;6445;52.490;13.378;2023-02-10T08:00:27;44.40;;;22.33;;
12762;SDS011;6445;52.490;13.378;2023-02-10T08:02:52;47.20;;;22.23;;
12762;SDS011;6445;52.490;13.378;2023-02-10T08:05:17;47.25;;;22.90;;
12762;SDS011;6445;52.490;13.378;2023-02-10T08:07:42;43.83;;;22.45;;
12762;SDS011;6445;52.490;13.378;2023-02-10T08:10:08;41.00;;;22.02;;
12762;SDS011;6445;52.490;13.378;2023-02-10T08:12:33;49.20;;;22.70;;
12762;SDS011;6445;52.490;13.378;2023-02-10T08:14:58;41.65;;;20.90;;
12762;SDS011;6445;52.490;13.378;2023-02-10T08:17:23;41.40;;;21.67;;
12762;SDS011;6445;52.490;13.378;2023-02-10T08:19:49;41.85;;;23.35;;
12762;SDS011;6445;52.490;13.378;2023-02-10T08:22:14;38.13;;;22.05;;
12762;SDS011;6445;52.490;13.378;2023-02-10T08:24:39;39.35;;;21.30;;
12762;SDS011;6445;52.490;13.378;2023-02-10T08:27:05;47.38;;;21.30;;
12762;SDS011;6445;52.490;13.378;2023-02-10T08:29:30;41.08;;;21.77;;
12762;SDS011;6445;52.490;13.378;2023-02-10T08:31:55;40.05;;;21.27;;
12762;SDS011;6445;52.490;13.378;2023-02-10T08:34:21;44.25;;;21.25;;
12762;SDS011;6445;52.490;13.378;2023-02-10T08:36:46;44.47;;;21.40;;
12762;SDS011;6445;52.490;13.378;2023-02-10T08:39:12;43.05;;;20.60;;
12762;SDS011;6445;52.490;13.378;2023-02-10T08:41:38;43.75;;;21.42;;
12762;SDS011;6445;52.490;13.378;2023-02-10T08:44:04;39.22;;;20.73;;
12762;SDS011;6445;52.490;13.378;2023-02-10T08:46:30;42.25;;;21.50;;
12762;SDS011;6445;52.490;13.378;2023-02-10T08:48:55;45.50;;;22.40;;
12762;SDS011;6445;52.490;13.378;2023-02-10T08:51:21;41.00;;;21.42;;
12762;SDS011;6445;52.490;13.378;2023-02-10T08:53:46;39.58;;;20.80;;
12762;SDS011;6445;52.490;13.378;2023-02-10T08:56:16;40.63;;;22.13;;
12762;SDS011;6445;52.490;13.378;2023-02-10T08:58:42;45.70;;;22.40;;
12762;SDS011;6445;52.490;13.378;2023-02-10T09:01:15;43.17;;;21.58;;
12762;SDS011;6445;52.490;13.378;2023-02-10T09:03:43;42.05;;;22.02;;
12762;SDS011;6445;52.490;13.378;2023-02-10T09:06:12;41.65;;;22.60;;
12762;SDS011;6445;52.490;13.378;2023-02-10T09:08:45;42.38;;;22.75;;
12762;SDS011;6445;52.490;13.378;2023-02-10T09:11:13;49.55;;;23.05;;
12762;SDS011;6445;52.490;13.378;2023-02-10T09:13:40;44.90;;;23.58;;
12762;SDS011;6445;52.490;13.378;2023-02-10T09:16:05;44.92;;;23.90;;
12762;SDS011;6445;52.490;13.378;2023-02-10T09:18:31;41.80;;;23.30;;
12762;SDS011;6445;52.490;13.378;2023-02-10T09:21:00;46.70;;;23.27;;
12762;SDS011;6445;52.490;13.378;2023-02-10T09:23:26;46.80;;;24.35;;
12762;SDS011;6445;52.490;13.378;2023-02-10T09:25:52;43.17;;;23.75;;
12762;SDS011;6445;52.490;13.378;2023-02-10T09:28:18;42.50;;;23.02;;
12762;SDS011;6445;52.490;13.378;2023-02-10T09:30:44;43.78;;;23.83;;
12762;SDS011;6445;52.490;13.378;2023-02-10T09:33:09;44.50;;;24.77;;
12762;SDS011;6445;52.490;13.378;2023-02-10T09:35:35;42.92;;;23.40;;
12762;SDS011;6445;52.490;13.378;2023-02-10T09:38:00;47.13;;;23.77;;
12762;SDS011;6445;52.490;13.378;2023-02-10T09:40:27;45.47;;;23.17;;
12762;SDS011;6445;52.490;13.378;2023-02-10T09:45:53;47.58;;;23.30;;
12762;SDS011;6445;52.490;13.378;2023-02-10T09:48:32;44.53;;;22.33;;
12762;SDS011;6445;52.490;13.378;2023-02-10T09:51:14;46.63;;;23.52;;
12762;SDS011;6445;52.490;13.378;2023-02-10T09:53:59;48.15;;;24.10;;
12762;SDS011;6445;52.490;13.378;2023-02-10T09:56:25;49.40;;;24.30;;
12762;SDS011;6445;52.490;13.378;2023-02-10T09:58:52;41.42;;;23.10;;
12762;SDS011;6445;52.490;13.378;2023-02-10T10:01:21;42.20;;;23.50;;
12762;SDS011;6445;52.490;13.378;2023-02-10T10:03:58;46.97;;;25.02;;
12762;SDS011;6445;52.490;13.378;2023-02-10T10:06:34;49.10;;;23.67;;
12762;SDS011;6445;52.490;13.378;2023-02-10T10:09:05;45.13;;;24.00;;
12762;SDS011;6445;52.490;13.378;2023-02-10T10:14:24;44.10;;;24.25;;
12762;SDS011;6445;52.490;13.378;2023-02-10T10:30:51;48.30;;;23.45;;
12762;SDS011;6445;52.490;13.378;2023-02-10T10:36:14;49.75;;;23.75;;
12762;SDS011;6445;52.490;13.378;2023-02-10T10:38:49;49.20;;;24.10;;
12762;SDS011;6445;52.490;13.378;2023-02-10T10:41:16;48.40;;;24.35;;
12762;SDS011;6445;52.490;13.378;2023-02-10T10:43:47;47.25;;;23.67;;
12762;SDS011;6445;52.490;13.378;2023-02-10T10:46:16;49.53;;;23.75;;
12762;SDS011;6445;52.490;13.378;2023-02-10T10:48:47;46.45;;;22.88;;
12762;SDS011;6445;52.490;13.378;2023-02-10T10:51:12;47.95;;;24.25;;
12762;SDS011;6445;52.490;13.378;2023-02-10T10:53:49;43.80;;;22.65;;
12762;SDS011;6445;52.490;13.378;2023-02-10T10:56:22;50.95;;;24.05;;
12762;SDS011;6445;52.490;13.378;2023-02-10T10:58:56;46.40;;;22.73;;
12762;SDS011;6445;52.490;13.378;2023-02-10T11:01:33;51.33;;;23.00;;
12762;SDS011;6445;52.490;13.378;2023-02-10T11:04:06;41.50;;;21.88;;
12762;SDS011;6445;52.490;13.378;2023-02-10T11:06:45;47.17;;;22.02;;
12762;SDS011;6445;52.490;13.378;2023-02-10T11:09:26;44.05;;;23.20;;
12762;SDS011;6445;52.490;13.378;2023-02-10T11:11:54;45.38;;;21.05;;
12762;SDS011;6445;52.490;13.378;2023-02-10T11:14:27;46.03;;;22.75;;
12762;SDS011;6445;52.490;13.378;2023-02-10T11:16:56;44.40;;;22.30;;
12762;SDS011;6445;52.490;13.378;2023-02-10T11:19:33;44.05;;;21.58;;
12762;SDS011;6445;52.490;13.378;2023-02-10T11:21:59;40.83;;;21.67;;
12762;SDS011;6445;52.490;13.378;2023-02-10T11:24:26;46.00;;;24.15;;
12762;SDS011;6445;52.490;13.378;2023-02-10T11:26:54;39.95;;;21.23;;
12762;SDS011;6445;52.490;13.378;2023-02-10T11:29:21;47.70;;;22.50;;
12762;SDS011;6445;52.490;13.378;2023-02-10T11:31:46;42.65;;;21.88;;
12762;SDS011;6445;52.490;13.378;2023-02-10T11:34:23;38.35;;;21.63;;
12762;SDS011;6445;52.490;13.378;2023-02-10T11:36:51;38.08;;;21.63;;
12762;SDS011;6445;52.490;13.378;2023-02-10T11:39:20;45.55;;;22.02;;
12762;SDS011;6445;52.490;13.378;2023-02-10T11:41:56;40.95;;;20.17;;
12762;SDS011;6445;52.490;13.378;2023-02-10T11:44:29;40.45;;;20.25;;
12762;SDS011;6445;52.490;13.378;2023-02-10T11:47:04;37.72;;;21.85;;
12762;SDS011;6445;52.490;13.378;2023-02-10T11:49:37;39.00;;;20.90;;
12762;SDS011;6445;52.490;13.378;2023-02-10T11:52:10;39.33;;;21.73;;
12762;SDS011;6445;52.490;13.378;2023-02-10T11:54:36;39.70;;;21.08;;
12762;SDS011;6445;52.490;13.378;2023-02-10T11:57:12;44.10;;;21.20;;
12762;SDS011;6445;52.490;13.378;2023-02-10T12:00:19;41.08;;;22.67;;
12762;SDS011;6445;52.490;13.378;2023-02-10T12:03:00;38.80;;;20.58;;
12762;SDS011;6445;52.490;13.378;2023-02-10T12:06:03;42.65;;;21.55;;
12762;SDS011;6445;52.490;13.378;2023-02-10T12:08:37;42.40;;;22.80;;
12762;SDS011;6445;52.490;13.378;2023-02-10T12:14:04;46.17;;;22.45;;
12762;SDS011;6445;52.490;13.378;2023-02-10T12:16:48;44.63;;;22.42;;
12762;SDS011;6445;52.490;13.378;2023-02-10T12:19:37;35.85;;;21.00;;
12762;SDS011;6445;52.490;13.378;2023-02-10T12:22:14;38.97;;;22.13;;
12762;SDS011;6445;52.490;13.378;2023-02-10T12:24:55;45.92;;;21.83;;
12762;SDS011;6445;52.490;13.378;2023-02-10T12:35:55;38.97;;;20.95;;
12762;SDS011;6445;52.490;13.378;2023-02-10T12:41:49;36.38;;;20.30;;
12762;SDS011;6445;52.490;13.378;2023-02-10T12:44:34;38.03;;;19.90;;
12762;SDS011;6445;52.490;13.378;2023-02-10T12:49:58;40.22;;;19.77;;
12762;SDS011;6445;52.490;13.378;2023-02-10T12:52:41;41.92;;;20.40;;
12762;SDS011;6445;52.490;13.378;2023-02-10T12:57:48;37.40;;;21.35;;
12762;SDS011;6445;52.490;13.378;2023-02-10T13:00:23;41.10;;;21.75;;
12762;SDS011;6445;52.490;13.378;2023-02-10T13:05:31;37.13;;;19.42;;
12762;SDS011;6445;52.490;13.378;2023-02-10T13:08:01;35.30;;;19.35;;
12762;SDS011;6445;52.490;13.378;2023-02-10T13:10:35;37.00;;;20.20;;
12762;SDS011;6445;52.490;13.378;2023-02-10T13:13:05;40.35;;;19.35;;
12762;SDS011;6445;52.490;13.378;2023-02-10T13:15:37;39.95;;;19.63;;
12762;SDS011;6445;52.490;13.378;2023-02-10T13:18:15;40.15;;;19.88;;
12762;SDS011;6445;52.490;13.378;2023-02-10T13:23:30;36.72;;;18.77;;
12762;SDS011;6445;52.490;13.378;2023-02-10T13:29:06;36.72;;;19.85;;
12762;SDS011;6445;52.490;13.378;2023-02-10T13:31:45;34.40;;;18.08;;
12762;SDS011;6445;52.490;13.378;2023-02-10T13:34:30;35.88;;;17.67;;
12762;SDS011;6445;52.490;13.378;2023-02-10T13:37:03;33.85;;;17.65;;
12762;SDS011;6445;52.490;13.378;2023-02-10T13:39:51;31.98;;;17.45;;
12762;SDS011;6445;52.490;13.378;2023-02-10T13:44:57;32.92;;;16.77;;
12762;SDS011;6445;52.490;13.378;2023-02-10T13:47:37;31.38;;;15.55;;
12762;SDS011;6445;52.490;13.378;2023-02-10T13:50:18;32.97;;;17.48;;
12762;SDS011;6445;52.490;13.378;2023-02-10T14:00:29;35.95;;;18.05;;
12762;SDS011;6445;52.490;13.378;2023-02-10T14:03:02;33.90;;;17.65;;
12762;SDS011;6445;52.490;13.378;2023-02-10T14:06:05;33.35;;;17.23;;
12762;SDS011;6445;52.490;13.378;2023-02-10T14:08:36;31.58;;;17.80;;
12762;SDS011;6445;52.490;13.378;2023-02-10T14:11:06;31.23;;;17.10;;
12762;SDS011;6445;52.490;13.378;2023-02-10T14:14:03;35.25;;;17.33;;
12762;SDS011;6445;52.490;13.378;2023-02-10T14:16:41;33.58;;;16.13;;
12762;SDS011;6445;52.490;13.378;2023-02-10T14:19:24;29.95;;;17.33;;
12762;SDS011;6445;52.490;13.378;2023-02-10T14:21:55;31.17;;;17.50;;
12762;SDS011;6445;52.490;13.378;2023-02-10T14:24:23;34.05;;;17.52;;
12762;SDS011;6445;52.490;13.378;2023-02-10T14:26:51;33.40;;;17.83;;
12762;SDS011;6445;52.490;13.378;2023-02-10T14:29:18;32.03;;;17.70;;
12762;SDS011;6445;52.490;13.378;2023-02-10T14:31:49;35.78;;;18.65;;
12762;SDS011;6445;52.490;13.378;2023-02-10T14:34:22;34.00;;;18.42;;
12762;SDS011;6445;52.490;13.378;2023-02-10T14:36:56;33.15;;;17.67;;
12762;SDS011;6445;52.490;13.378;2023-02-10T14:39:24;37.72;;;17.48;;
12762;SDS011;6445;52.490;13.378;2023-02-10T14:41:52;33.85;;;17.35;;
12762;SDS011;6445;52.490;13.378;2023-02-10T14:44:22;31.45;;;18.40;;
12762;SDS011;6445;52.490;13.378;2023-02-10T14:47:05;33.55;;;18.13;;
12762;SDS011;6445;52.490;13.378;2023-02-10T14:49:31;34.20;;;17.65;;
12762;SDS011;6445;52.490;13.378;2023-02-10T14:52:01;31.42;;;17.73;;
12762;SDS011;6445;52.490;13.378;2023-02-10T14:54:27;34.10;;;18.23;;
12762;SDS011;6445;52.490;13.378;2023-02-10T14:56:53;32.80;;;17.70;;
12762;SDS011;6445;52.490;13.378;2023-02-10T14:59:21;29.95;;;16.83;;
12762;SDS011;6445;52.490;13.378;2023-02-10T15:01:48;34.20;;;18.00;;
12762;SDS011;6445;52.490;13.378;2023-02-10T15:04:15;37.42;;;18.75;;
12762;SDS011;6445;52.490;13.378;2023-02-10T15:06:43;34.67;;;18.85;;
12762;SDS011;6445;52.490;13.378;2023-02-10T15:09:17;43.08;;;20.98;;
12762;SDS011;6445;52.490;13.378;2023-02-10T15:12:02;36.13;;;18.58;;
12762;SDS011;6445;52.490;13.378;2023-02-10T15:14:41;35.63;;;19.38;;
12762;SDS011;6445;52.490;13.378;2023-02-10T15:17:15;42.28;;;19.05;;
12762;SDS011;6445;52.490;13.378;2023-02-10T15:19:51;36.30;;;19.38;;
12762;SDS011;6445;52.490;13.378;2023-02-10T15:22:31;34.47;;;19.33;;
12762;SDS011;6445;52.490;13.378;2023-02-10T15:28:20;39.78;;;18.15;;
12762;SDS011;6445;52.490;13.378;2023-02-10T15:30:57;34.08;;;19.70;;
12762;SDS011;6445;52.490;13.378;2023-02-10T15:36:20;36.67;;;19.92;;
12762;SDS011;6445;52.490;13.378;2023-02-10T15:38:49;35.35;;;19.23;;
12762;SDS011;6445;52.490;13.378;2023-02-10T15:41:34;38.30;;;20.10;;
12762;SDS011;6445;52.490;13.378;2023-02-10T15:46:44;42.83;;;19.88;;
12762;SDS011;6445;52.490;13.378;2023-02-10T15:49:14;35.80;;;18.92;;
12762;SDS011;6445;52.490;13.378;2023-02-10T15:51:43;37.47;;;19.38;;
12762;SDS011;6445;52.490;13.378;2023-02-10T15:54:12;38.45;;;20.20;;
12762;SDS011;6445;52.490;13.378;2023-02-10T15:56:39;37.22;;;19.35;;
12762;SDS011;6445;52.490;13.378;2023-02-10T15:59:09;37.20;;;19.75;;